Melilla, Morocco

12:28 AM WEST en Abril 26, 2018 (GMT +0100)
Carretera Alfonso XIII | | Change Station

Alt 118 ft 35.28 °N, 2.95 °W | Updated 2 minutes ago

Nublado
Nublado
61.9 ° F
Sensación térmica 61.9 ° F
N
2.5
Viento Variable Viento desde Oeste
Gusts 5.0 mph

Hoy
Alta -- | Baja -- ° F
--% Posibilidad de precipitaciones
Ayer
Alta -- | Baja -- ° F
Precip. -- pul
Presión 30.01 pul
Visibilidad 3.7 Millas
Nubes Nubes dispersas 700 ft
Nubes dispersas 1600 ft
Muy nublado 2300 ft
Punto de rocío 59 ° F
Humedad 91%
Precipitaciones No disponible.
Espesor de la nieve No disponible.
6:26 AM 7:53 PM
Gibosa creciente, 82% visible
METAR GMMW 252300Z 32007KT 270V360 6000 SCT007 SCT016 BKN023 14/14 Q1016 NOSIG
Presión 30.01 pul
Visibilidad 3.7 Millas
Nubes Nubes dispersas 700 ft
Nubes dispersas 1600 ft
Muy nublado 2300 ft
Punto de rocío 59 ° F
Humedad 91%
Precipitaciones No disponible.
Espesor de la nieve No disponible.
6:26 AM 7:53 PM
Gibosa creciente, 82% visible
METAR GMMW 252300Z 32007KT 270V360 6000 SCT007 SCT016 BKN023 14/14 Q1016 NOSIG

Get Severe Weather Alerts

Thanks for signing up!

Be on the lookout for a verification email in your inbox.

You'll start receiving the daily forecast at 6 AM.

×

10-Day Weather Forecast

No radar image for this location.
×

Almanac

Astronomía

Apr. 26, 2018 Salida Puesta
Hora real
Crepúsculo civil
Crepúsculo náutico
Crepúsculo astronómico
Luna
Horas de luz
Horas de luz
Tomorrow will be .
, % of the Moon is Illuminated

Extremos de hoy

Máximos del país Bajas del país

Community

WunderPhotos

Category 6

Welcome to Category 6. This is the collective home for Weather Underground's featured writeups by Dr. Jeff Masters (right), Bob Henson (left), Chris Burt, and other regular contributors.

Nearby

Calidad del aire

  Calidad del aire Índice AQ Contaminante
Not available.

Grosos de nieve

Estación Profundido Altura

Actividad de terremotos

Ciudad Distance Mag. Tiempo y dato
Magnitud mínima muestra es 2,5.

Temperaturas de aguas costeras

Lugar Temperatura

Stations

Estaciones meteorológicas cercanas

Ubicación de la estación Temp. Vientos helados Punto de rocío Humedad Viento Precip. Alt Actualizado Tipo